sensor_id;sensor_type;location;lat;lon;timestamp;P1;durP1;ratioP1;P2;durP2;ratioP2
57778;SDS011;43608;49.486;9.640;2023-09-18T00:00:23;2.58;;;2.38;;
57778;SDS011;43608;49.486;9.640;2023-09-18T00:00:53;2.42;;;2.20;;
57778;SDS011;43608;49.486;9.640;2023-09-18T00:01:25;2.88;;;2.40;;
57778;SDS011;43608;49.486;9.640;2023-09-18T00:01:55;2.83;;;2.50;;
57778;SDS011;43608;49.486;9.640;2023-09-18T00:02:26;3.05;;;2.67;;
57778;SDS011;43608;49.486;9.640;2023-09-18T00:02:58;2.60;;;2.33;;
57778;SDS011;43608;49.486;9.640;2023-09-18T00:03:28;2.78;;;2.47;;
57778;SDS011;43608;49.486;9.640;2023-09-18T00:03:58;2.97;;;2.40;;
57778;SDS011;43608;49.486;9.640;2023-09-18T00:04:29;2.60;;;2.40;;
57778;SDS011;43608;49.486;9.640;2023-09-18T00:04:59;2.45;;;2.25;;
57778;SDS011;43608;49.486;9.640;2023-09-18T00:05:30;3.05;;;2.60;;
57778;SDS011;43608;49.486;9.640;2023-09-18T00:06:01;2.95;;;2.45;;
57778;SDS011;43608;49.486;9.640;2023-09-18T00:06:32;2.50;;;2.30;;
57778;SDS011;43608;49.486;9.640;2023-09-18T00:07:03;2.63;;;2.35;;
57778;SDS011;43608;49.486;9.640;2023-09-18T00:07:33;2.90;;;2.40;;
57778;SDS011;43608;49.486;9.640;2023-09-18T00:08:04;2.67;;;2.47;;
57778;SDS011;43608;49.486;9.640;2023-09-18T00:08:34;2.40;;;2.20;;
57778;SDS011;43608;49.486;9.640;2023-09-18T00:09:04;2.80;;;2.50;;
57778;SDS011;43608;49.486;9.640;2023-09-18T00:09:37;2.53;;;2.22;;
57778;SDS011;43608;49.486;9.640;2023-09-18T00:10:07;2.47;;;2.28;;
57778;SDS011;43608;49.486;9.640;2023-09-18T00:10:38;2.83;;;2.40;;
57778;SDS011;43608;49.486;9.640;2023-09-18T00:11:08;3.42;;;2.38;;
57778;SDS011;43608;49.486;9.640;2023-09-18T00:11:40;2.88;;;2.33;;
57778;SDS011;43608;49.486;9.640;2023-09-18T00:12:10;2.65;;;2.45;;
57778;SDS011;43608;49.486;9.640;2023-09-18T00:12:40;2.45;;;2.22;;
57778;SDS011;43608;49.486;9.640;2023-09-18T00:13:11;2.47;;;2.28;;
57778;SDS011;43608;49.486;9.640;2023-09-18T00:13:41;3.05;;;2.70;;
57778;SDS011;43608;49.486;9.640;2023-09-18T00:14:11;2.60;;;2.40;;
57778;SDS011;43608;49.486;9.640;2023-09-18T00:14:42;2.63;;;2.42;;
57778;SDS011;43608;49.486;9.640;2023-09-18T00:15:12;2.60;;;2.40;;
57778;SDS011;43608;49.486;9.640;2023-09-18T00:15:43;3.75;;;2.40;;
57778;SDS011;43608;49.486;9.640;2023-09-18T00:16:16;3.15;;;2.40;;
57778;SDS011;43608;49.486;9.640;2023-09-18T00:16:47;2.80;;;2.30;;
57778;SDS011;43608;49.486;9.640;2023-09-18T00:17:18;2.50;;;2.30;;
57778;SDS011;43608;49.486;9.640;2023-09-18T00:17:49;2.53;;;2.33;;
57778;SDS011;43608;49.486;9.640;2023-09-18T00:18:19;2.75;;;2.30;;
57778;SDS011;43608;49.486;9.640;2023-09-18T00:18:49;3.10;;;2.42;;
57778;SDS011;43608;49.486;9.640;2023-09-18T00:19:20;2.53;;;2.25;;
57778;SDS011;43608;49.486;9.640;2023-09-18T00:19:50;2.53;;;2.33;;
57778;SDS011;43608;49.486;9.640;2023-09-18T00:20:21;2.80;;;2.38;;
57778;SDS011;43608;49.486;9.640;2023-09-18T00:20:56;2.88;;;2.33;;
57778;SDS011;43608;49.486;9.640;2023-09-18T00:21:27;3.15;;;2.50;;
57778;SDS011;43608;49.486;9.640;2023-09-18T00:22:00;2.50;;;2.20;;
57778;SDS011;43608;49.486;9.640;2023-09-18T00:22:31;2.72;;;2.45;;
57778;SDS011;43608;49.486;9.640;2023-09-18T00:23:01;2.90;;;2.40;;
57778;SDS011;43608;49.486;9.640;2023-09-18T00:23:32;2.53;;;2.33;;
57778;SDS011;43608;49.486;9.640;2023-09-18T00:24:05;2.58;;;2.28;;
57778;SDS011;43608;49.486;9.640;2023-09-18T00:24:36;2.60;;;2.40;;
57778;SDS011;43608;49.486;9.640;2023-09-18T00:25:07;3.70;;;2.40;;
57778;SDS011;43608;49.486;9.640;2023-09-18T00:25:38;2.42;;;2.20;;
57778;SDS011;43608;49.486;9.640;2023-09-18T00:26:11;2.60;;;2.40;;
57778;SDS011;43608;49.486;9.640;2023-09-18T00:26:41;2.80;;;2.50;;
57778;SDS011;43608;49.486;9.640;2023-09-18T00:27:11;2.35;;;2.15;;
57778;SDS011;43608;49.486;9.640;2023-09-18T00:27:43;2.88;;;2.58;;
57778;SDS011;43608;49.486;9.640;2023-09-18T00:28:14;3.00;;;2.40;;
57778;SDS011;43608;49.486;9.640;2023-09-18T00:28:44;2.78;;;2.40;;
57778;SDS011;43608;49.486;9.640;2023-09-18T00:29:14;2.58;;;2.38;;
57778;SDS011;43608;49.486;9.640;2023-09-18T00:29:45;2.83;;;2.50;;
57778;SDS011;43608;49.486;9.640;2023-09-18T00:30:15;2.80;;;2.45;;
57778;SDS011;43608;49.486;9.640;2023-09-18T00:30:49;2.63;;;2.28;;
57778;SDS011;43608;49.486;9.640;2023-09-18T00:31:20;2.63;;;2.40;;
57778;SDS011;43608;49.486;9.640;2023-09-18T00:31:50;2.63;;;2.40;;
57778;SDS011;43608;49.486;9.640;2023-09-18T00:32:21;2.72;;;2.40;;
57778;SDS011;43608;49.486;9.640;2023-09-18T00:32:51;2.50;;;2.30;;
57778;SDS011;43608;49.486;9.640;2023-09-18T00:33:22;2.50;;;2.30;;
57778;SDS011;43608;49.486;9.640;2023-09-18T00:33:52;3.40;;;2.42;;
57778;SDS011;43608;49.486;9.640;2023-09-18T00:34:22;2.88;;;2.53;;
57778;SDS011;43608;49.486;9.640;2023-09-18T00:34:53;2.58;;;2.38;;
57778;SDS011;43608;49.486;9.640;2023-09-18T00:35:23;2.55;;;2.30;;
57778;SDS011;43608;49.486;9.640;2023-09-18T00:35:54;2.67;;;2.47;;
57778;SDS011;43608;49.486;9.640;2023-09-18T00:36:24;2.60;;;2.28;;
57778;SDS011;43608;49.486;9.640;2023-09-18T00:36:54;2.50;;;2.30;;
57778;SDS011;43608;49.486;9.640;2023-09-18T00:37:25;2.58;;;2.30;;
57778;SDS011;43608;49.486;9.640;2023-09-18T00:37:55;2.40;;;2.20;;
57778;SDS011;43608;49.486;9.640;2023-09-18T00:38:26;2.55;;;2.15;;
57778;SDS011;43608;49.486;9.640;2023-09-18T00:38:56;2.60;;;2.35;;
57778;SDS011;43608;49.486;9.640;2023-09-18T00:39:26;2.75;;;2.30;;
57778;SDS011;43608;49.486;9.640;2023-09-18T00:39:57;2.80;;;2.40;;
57778;SDS011;43608;49.486;9.640;2023-09-18T00:40:27;2.60;;;2.40;;
57778;SDS011;43608;49.486;9.640;2023-09-18T00:40:58;2.80;;;2.40;;
57778;SDS011;43608;49.486;9.640;2023-09-18T00:41:28;2.58;;;2.28;;
57778;SDS011;43608;49.486;9.640;2023-09-18T00:41:59;3.47;;;2.30;;
57778;SDS011;43608;49.486;9.640;2023-09-18T00:42:29;2.55;;;2.28;;
57778;SDS011;43608;49.486;9.640;2023-09-18T00:42:59;2.63;;;2.25;;
57778;SDS011;43608;49.486;9.640;2023-09-18T00:43:30;2.83;;;2.38;;
57778;SDS011;43608;49.486;9.640;2023-09-18T00:44:00;2.80;;;2.50;;
57778;SDS011;43608;49.486;9.640;2023-09-18T00:44:30;2.65;;;2.25;;
57778;SDS011;43608;49.486;9.640;2023-09-18T00:45:01;2.60;;;2.38;;
57778;SDS011;43608;49.486;9.640;2023-09-18T00:45:31;2.58;;;2.38;;
57778;SDS011;43608;49.486;9.640;2023-09-18T00:46:02;3.50;;;2.45;;
57778;SDS011;43608;49.486;9.640;2023-09-18T00:46:32;2.85;;;2.45;;
57778;SDS011;43608;49.486;9.640;2023-09-18T00:47:03;2.55;;;2.30;;
57778;SDS011;43608;49.486;9.640;2023-09-18T00:47:34;3.22;;;2.40;;
57778;SDS011;43608;49.486;9.640;2023-09-18T00:48:06;3.00;;;2.42;;
57778;SDS011;43608;49.486;9.640;2023-09-18T00:48:36;2.67;;;2.35;;
57778;SDS011;43608;49.486;9.640;2023-09-18T00:49:07;3.50;;;2.70;;
57778;SDS011;43608;49.486;9.640;2023-09-18T00:49:38;2.78;;;2.42;;
57778;SDS011;43608;49.486;9.640;2023-09-18T00:50:10;2.80;;;2.50;;
57778;SDS011;43608;49.486;9.640;2023-09-18T00:50:43;2.75;;;2.47;;
57778;SDS011;43608;49.486;9.640;2023-09-18T00:51:14;2.85;;;2.40;;
57778;SDS011;43608;49.486;9.640;2023-09-18T00:51:46;2.83;;;2.53;;
57778;SDS011;43608;49.486;9.640;2023-09-18T00:52:17;2.70;;;2.47;;
57778;SDS011;43608;49.486;9.640;2023-09-18T00:52:49;2.80;;;2.40;;
57778;SDS011;43608;49.486;9.640;2023-09-18T00:53:20;2.90;;;2.60;;
57778;SDS011;43608;49.486;9.640;2023-09-18T00:53:53;2.60;;;2.33;;
57778;SDS011;43608;49.486;9.640;2023-09-18T00:54:24;2.60;;;2.40;;
57778;SDS011;43608;49.486;9.640;2023-09-18T00:54:55;2.78;;;2.45;;
57778;SDS011;43608;49.486;9.640;2023-09-18T00:55:27;3.10;;;2.50;;
57778;SDS011;43608;49.486;9.640;2023-09-18T00:55:58;2.90;;;2.60;;
57778;SDS011;43608;49.486;9.640;2023-09-18T00:56:30;3.10;;;2.63;;
57778;SDS011;43608;49.486;9.640;2023-09-18T00:57:02;2.80;;;2.50;;
57778;SDS011;43608;49.486;9.640;2023-09-18T00:57:33;2.70;;;2.50;;
57778;SDS011;43608;49.486;9.640;2023-09-18T00:58:05;2.60;;;2.40;;
57778;SDS011;43608;49.486;9.640;2023-09-18T00:58:36;2.58;;;2.35;;
57778;SDS011;43608;49.486;9.640;2023-09-18T00:59:06;2.60;;;2.40;;
57778;SDS011;43608;49.486;9.640;2023-09-18T00:59:38;2.42;;;2.22;;
57778;SDS011;43608;49.486;9.640;2023-09-18T01:00:09;2.63;;;2.42;;
57778;SDS011;43608;49.486;9.640;2023-09-18T01:00:39;2.88;;;2.50;;
57778;SDS011;43608;49.486;9.640;2023-09-18T01:01:10;2.75;;;2.40;;
57778;SDS011;43608;49.486;9.640;2023-09-18T01:01:42;2.67;;;2.47;;
57778;SDS011;43608;49.486;9.640;2023-09-18T01:02:12;2.72;;;2.40;;
57778;SDS011;43608;49.486;9.640;2023-09-18T01:02:43;2.53;;;2.33;;
57778;SDS011;43608;49.486;9.640;2023-09-18T01:03:15;2.95;;;2.60;;
57778;SDS011;43608;49.486;9.640;2023-09-18T01:03:49;2.40;;;2.20;;
57778;SDS011;43608;49.486;9.640;2023-09-18T01:04:21;2.58;;;2.38;;
57778;SDS011;43608;49.486;9.640;2023-09-18T01:04:52;2.55;;;2.35;;
57778;SDS011;43608;49.486;9.640;2023-09-18T01:05:23;2.53;;;2.30;;
57778;SDS011;43608;49.486;9.640;2023-09-18T01:05:53;2.47;;;2.22;;
57778;SDS011;43608;49.486;9.640;2023-09-18T01:06:24;2.30;;;2.10;;
57778;SDS011;43608;49.486;9.640;2023-09-18T01:06:58;2.53;;;2.30;;
57778;SDS011;43608;49.486;9.640;2023-09-18T01:07:32;3.28;;;2.42;;
57778;SDS011;43608;49.486;9.640;2023-09-18T01:08:02;2.78;;;2.35;;
57778;SDS011;43608;49.486;9.640;2023-09-18T01:08:35;2.92;;;2.50;;
57778;SDS011;43608;49.486;9.640;2023-09-18T01:09:06;2.88;;;2.58;;
57778;SDS011;43608;49.486;9.640;2023-09-18T01:09:42;3.38;;;2.40;;
57778;SDS011;43608;49.486;9.640;2023-09-18T01:10:13;2.47;;;2.28;;
57778;SDS011;43608;49.486;9.640;2023-09-18T01:10:48;2.58;;;2.38;;
57778;SDS011;43608;49.486;9.640;2023-09-18T01:11:39;2.58;;;2.38;;
57778;SDS011;43608;49.486;9.640;2023-09-18T01:13:35;2.85;;;2.45;;
57778;SDS011;43608;49.486;9.640;2023-09-18T01:15:08;2.78;;;2.50;;
57778;SDS011;43608;49.486;9.640;2023-09-18T01:16:01;2.80;;;2.45;;
57778;SDS011;43608;49.486;9.640;2023-09-18T01:16:50;3.40;;;2.60;;
57778;SDS011;43608;49.486;9.640;2023-09-18T01:17:24;2.90;;;2.60;;
57778;SDS011;43608;49.486;9.640;2023-09-18T01:17:56;3.47;;;2.83;;
57778;SDS011;43608;49.486;9.640;2023-09-18T01:18:26;3.35;;;2.85;;
57778;SDS011;43608;49.486;9.640;2023-09-18T01:18:57;2.78;;;2.38;;
57778;SDS011;43608;49.486;9.640;2023-09-18T01:19:34;2.95;;;2.63;;
57778;SDS011;43608;49.486;9.640;2023-09-18T01:20:09;2.88;;;2.58;;
57778;SDS011;43608;49.486;9.640;2023-09-18T01:20:40;3.08;;;2.47;;
57778;SDS011;43608;49.486;9.640;2023-09-18T01:21:10;3.25;;;2.50;;
57778;SDS011;43608;49.486;9.640;2023-09-18T01:21:41;2.63;;;2.30;;
57778;SDS011;43608;49.486;9.640;2023-09-18T01:22:12;3.05;;;2.38;;
57778;SDS011;43608;49.486;9.640;2023-09-18T01:22:44;2.95;;;2.33;;
57778;SDS011;43608;49.486;9.640;2023-09-18T01:23:15;2.60;;;2.33;;
57778;SDS011;43608;49.486;9.640;2023-09-18T01:23:45;2.85;;;2.40;;
57778;SDS011;43608;49.486;9.640;2023-09-18T01:24:15;2.78;;;2.50;;
57778;SDS011;43608;49.486;9.640;2023-09-18T01:24:46;2.53;;;2.33;;
57778;SDS011;43608;49.486;9.640;2023-09-18T01:25:18;2.72;;;2.40;;
57778;SDS011;43608;49.486;9.640;2023-09-18T01:25:48;3.10;;;2.55;;
57778;SDS011;43608;49.486;9.640;2023-09-18T01:26:19;3.00;;;2.20;;
57778;SDS011;43608;49.486;9.640;2023-09-18T01:26:49;2.60;;;2.40;;
57778;SDS011;43608;49.486;9.640;2023-09-18T01:27:19;2.90;;;2.60;;
57778;SDS011;43608;49.486;9.640;2023-09-18T01:27:50;2.53;;;2.30;;
57778;SDS011;43608;49.486;9.640;2023-09-18T01:28:21;2.72;;;2.50;;
57778;SDS011;43608;49.486;9.640;2023-09-18T01:28:52;2.60;;;2.40;;
57778;SDS011;43608;49.486;9.640;2023-09-18T01:29:22;2.60;;;2.40;;
57778;SDS011;43608;49.486;9.640;2023-09-18T01:29:52;2.85;;;2.20;;
57778;SDS011;43608;49.486;9.640;2023-09-18T01:30:26;2.50;;;2.30;;
57778;SDS011;43608;49.486;9.640;2023-09-18T01:30:56;2.65;;;2.38;;
57778;SDS011;43608;49.486;9.640;2023-09-18T01:31:26;2.60;;;2.40;;
57778;SDS011;43608;49.486;9.640;2023-09-18T01:31:57;2.47;;;2.28;;
57778;SDS011;43608;49.486;9.640;2023-09-18T01:32:29;2.45;;;2.25;;
57778;SDS011;43608;49.486;9.640;2023-09-18T01:33:01;2.50;;;2.30;;
57778;SDS011;43608;49.486;9.640;2023-09-18T01:33:34;2.60;;;2.40;;
57778;SDS011;43608;49.486;9.640;2023-09-18T01:34:05;2.78;;;2.30;;
57778;SDS011;43608;49.486;9.640;2023-09-18T01:34:38;2.88;;;2.50;;
57778;SDS011;43608;49.486;9.640;2023-09-18T01:35:12;3.38;;;2.65;;
57778;SDS011;43608;49.486;9.640;2023-09-18T01:35:45;2.80;;;2.40;;
57778;SDS011;43608;49.486;9.640;2023-09-18T01:36:16;3.55;;;2.60;;
57778;SDS011;43608;49.486;9.640;2023-09-18T01:36:49;3.00;;;2.33;;
57778;SDS011;43608;49.486;9.640;2023-09-18T01:37:21;3.28;;;2.60;;
57778;SDS011;43608;49.486;9.640;2023-09-18T01:37:56;2.50;;;2.30;;
57778;SDS011;43608;49.486;9.640;2023-09-18T01:38:28;2.58;;;2.25;;
57778;SDS011;43608;49.486;9.640;2023-09-18T01:38:59;2.50;;;2.30;;
57778;SDS011;43608;49.486;9.640;2023-09-18T01:39:31;2.75;;;2.40;;
57778;SDS011;43608;49.486;9.640;2023-09-18T01:40:02;2.53;;;2.30;;
57778;SDS011;43608;49.486;9.640;2023-09-18T01:40:36;2.80;;;2.40;;
57778;SDS011;43608;49.486;9.640;2023-09-18T01:41:07;3.75;;;2.50;;
57778;SDS011;43608;49.486;9.640;2023-09-18T01:41:39;2.80;;;2.50;;
57778;SDS011;43608;49.486;9.640;2023-09-18T01:42:10;2.80;;;2.50;;
57778;SDS011;43608;49.486;9.640;2023-09-18T01:42:41;2.78;;;2.47;;
57778;SDS011;43608;49.486;9.640;2023-09-18T01:43:13;2.75;;;2.50;;
57778;SDS011;43608;49.486;9.640;2023-09-18T01:43:43;2.90;;;2.58;;
57778;SDS011;43608;49.486;9.640;2023-09-18T01:44:14;2.88;;;2.47;;
57778;SDS011;43608;49.486;9.640;2023-09-18T01:44:44;2.60;;;2.40;;
57778;SDS011;43608;49.486;9.640;2023-09-18T01:45:15;3.03;;;2.50;;
57778;SDS011;43608;49.486;9.640;2023-09-18T01:45:46;2.47;;;2.28;;
57778;SDS011;43608;49.486;9.640;2023-09-18T01:46:17;3.28;;;2.60;;
57778;SDS011;43608;49.486;9.640;2023-09-18T01:46:48;2.90;;;2.50;;
57778;SDS011;43608;49.486;9.640;2023-09-18T01:47:21;2.40;;;2.20;;
57778;SDS011;43608;49.486;9.640;2023-09-18T01:47:56;2.80;;;2.47;;
57778;SDS011;43608;49.486;9.640;2023-09-18T01:48:27;2.60;;;2.40;;
57778;SDS011;43608;49.486;9.640;2023-09-18T01:48:58;2.80;;;2.40;;
57778;SDS011;43608;49.486;9.640;2023-09-18T01:49:30;2.60;;;2.40;;
57778;SDS011;43608;49.486;9.640;2023-09-18T01:50:03;3.03;;;2.47;;
57778;SDS011;43608;49.486;9.640;2023-09-18T01:50:37;2.85;;;2.50;;
57778;SDS011;43608;49.486;9.640;2023-09-18T01:51:12;2.90;;;2.60;;
57778;SDS011;43608;49.486;9.640;2023-09-18T01:51:43;2.67;;;2.35;;
57778;SDS011;43608;49.486;9.640;2023-09-18T01:52:14;2.92;;;2.38;;
57778;SDS011;43608;49.486;9.640;2023-09-18T01:52:44;2.67;;;2.40;;
57778;SDS011;43608;49.486;9.640;2023-09-18T01:53:14;2.60;;;2.40;;
57778;SDS011;43608;49.486;9.640;2023-09-18T01:53:45;2.40;;;2.20;;
57778;SDS011;43608;49.486;9.640;2023-09-18T01:54:15;2.70;;;2.40;;
57778;SDS011;43608;49.486;9.640;2023-09-18T01:54:46;2.50;;;2.30;;
57778;SDS011;43608;49.486;9.640;2023-09-18T01:55:17;2.47;;;2.28;;
57778;SDS011;43608;49.486;9.640;2023-09-18T01:55:47;2.50;;;2.30;;
57778;SDS011;43608;49.486;9.640;2023-09-18T01:56:18;2.20;;;2.00;;
57778;SDS011;43608;49.486;9.640;2023-09-18T01:56:48;2.45;;;2.25;;
57778;SDS011;43608;49.486;9.640;2023-09-18T01:57:19;2.35;;;2.15;;
57778;SDS011;43608;49.486;9.640;2023-09-18T01:57:49;2.40;;;2.20;;
57778;SDS011;43608;49.486;9.640;2023-09-18T01:58:19;2.38;;;2.17;;
57778;SDS011;43608;49.486;9.640;2023-09-18T01:58:50;2.30;;;2.10;;
57778;SDS011;43608;49.486;9.640;2023-09-18T01:59:20;2.90;;;2.50;;
57778;SDS011;43608;49.486;9.640;2023-09-18T01:59:52;2.80;;;2.33;;
57778;SDS011;43608;49.486;9.640;2023-09-18T02:00:22;2.40;;;2.20;;
57778;SDS011;43608;49.486;9.640;2023-09-18T02:00:52;2.65;;;2.45;;
57778;SDS011;43608;49.486;9.640;2023-09-18T02:01:23;2.60;;;2.30;;
57778;SDS011;43608;49.486;9.640;2023-09-18T02:01:53;2.30;;;2.10;;
57778;SDS011;43608;49.486;9.640;2023-09-18T02:02:23;2.47;;;2.28;;
57778;SDS011;43608;49.486;9.640;2023-09-18T02:02:54;2.47;;;2.22;;
57778;SDS011;43608;49.486;9.640;2023-09-18T02:03:24;2.50;;;2.30;;
57778;SDS011;43608;49.486;9.640;2023-09-18T02:03:54;2.55;;;2.30;;
57778;SDS011;43608;49.486;9.640;2023-09-18T02:04:25;2.50;;;2.30;;
57778;SDS011;43608;49.486;9.640;2023-09-18T02:04:58;2.20;;;2.00;;
57778;SDS011;43608;49.486;9.640;2023-09-18T02:05:28;2.45;;;2.25;;
57778;SDS011;43608;49.486;9.640;2023-09-18T02:05:59;2.47;;;2.17;;
57778;SDS011;43608;49.486;9.640;2023-09-18T02:06:29;2.38;;;2.17;;
57778;SDS011;43608;49.486;9.640;2023-09-18T02:06:59;3.03;;;2.40;;
57778;SDS011;43608;49.486;9.640;2023-09-18T02:07:30;2.45;;;2.25;;
57778;SDS011;43608;49.486;9.640;2023-09-18T02:08:01;2.50;;;2.30;;
57778;SDS011;43608;49.486;9.640;2023-09-18T02:08:32;3.30;;;2.38;;
57778;SDS011;43608;49.486;9.640;2023-09-18T02:09:03;2.60;;;2.20;;
57778;SDS011;43608;49.486;9.640;2023-09-18T02:09:33;3.40;;;2.53;;
57778;SDS011;43608;49.486;9.640;2023-09-18T02:10:04;2.97;;;2.30;;
57778;SDS011;43608;49.486;9.640;2023-09-18T02:10:35;2.40;;;2.20;;
57778;SDS011;43608;49.486;9.640;2023-09-18T02:11:05;2.50;;;2.20;;
57778;SDS011;43608;49.486;9.640;2023-09-18T02:11:43;2.75;;;2.45;;
57778;SDS011;43608;49.486;9.640;2023-09-18T02:12:16;2.15;;;1.95;;
57778;SDS011;43608;49.486;9.640;2023-09-18T02:12:47;2.30;;;2.10;;
57778;SDS011;43608;49.486;9.640;2023-09-18T02:13:18;2.60;;;2.25;;
57778;SDS011;43608;49.486;9.640;2023-09-18T02:13:48;2.30;;;2.10;;
57778;SDS011;43608;49.486;9.640;2023-09-18T02:14:18;2.67;;;2.40;;
57778;SDS011;43608;49.486;9.640;2023-09-18T02:14:49;2.63;;;2.20;;
57778;SDS011;43608;49.486;9.640;2023-09-18T02:15:20;2.47;;;2.22;;
57778;SDS011;43608;49.486;9.640;2023-09-18T02:15:50;2.63;;;2.20;;
57778;SDS011;43608;49.486;9.640;2023-09-18T02:16:21;2.65;;;2.13;;
57778;SDS011;43608;49.486;9.640;2023-09-18T02:16:54;2.75;;;2.30;;
57778;SDS011;43608;49.486;9.640;2023-09-18T02:17:24;2.22;;;2.03;;
57778;SDS011;43608;49.486;9.640;2023-09-18T02:17:54;2.30;;;2.10;;
57778;SDS011;43608;49.486;9.640;2023-09-18T02:18:25;2.20;;;2.00;;
57778;SDS011;43608;49.486;9.640;2023-09-18T02:18:55;2.30;;;2.10;;
57778;SDS011;43608;49.486;9.640;2023-09-18T02:19:26;2.42;;;2.20;;
57778;SDS011;43608;49.486;9.640;2023-09-18T02:19:56;2.30;;;2.10;;
57778;SDS011;43608;49.486;9.640;2023-09-18T02:20:27;2.28;;;2.08;;
57778;SDS011;43608;49.486;9.640;2023-09-18T02:20:57;2.85;;;2.20;;
57778;SDS011;43608;49.486;9.640;2023-09-18T02:21:28;2.47;;;2.20;;
57778;SDS011;43608;49.486;9.640;2023-09-18T02:21:58;2.60;;;2.17;;
57778;SDS011;43608;49.486;9.640;2023-09-18T02:22:28;2.65;;;2.15;;
57778;SDS011;43608;49.486;9.640;2023-09-18T02:22:59;2.30;;;2.08;;
57778;SDS011;43608;49.486;9.640;2023-09-18T02:23:29;2.15;;;1.95;;
57778;SDS011;43608;49.486;9.640;2023-09-18T02:23:59;2.22;;;2.03;;
57778;SDS011;43608;49.486;9.640;2023-09-18T02:24:30;2.30;;;2.05;;
57778;SDS011;43608;49.486;9.640;2023-09-18T02:25:00;2.47;;;2.28;;
57778;SDS011;43608;49.486;9.640;2023-09-18T02:25:30;2.20;;;2.00;;
57778;SDS011;43608;49.486;9.640;2023-09-18T02:26:01;2.30;;;2.10;;
57778;SDS011;43608;49.486;9.640;2023-09-18T02:26:31;2.75;;;2.10;;
57778;SDS011;43608;49.486;9.640;2023-09-18T02:27:05;2.30;;;2.10;;
57778;SDS011;43608;49.486;9.640;2023-09-18T02:27:36;2.30;;;2.10;;
57778;SDS011;43608;49.486;9.640;2023-09-18T02:28:07;2.40;;;2.20;;
57778;SDS011;43608;49.486;9.640;2023-09-18T02:28:37;2.33;;;2.10;;
57778;SDS011;43608;49.486;9.640;2023-09-18T02:29:08;2.47;;;2.28;;
57778;SDS011;43608;49.486;9.640;2023-09-18T02:29:44;2.47;;;2.17;;
57778;SDS011;43608;49.486;9.640;2023-09-18T02:30:14;2.30;;;2.10;;
57778;SDS011;43608;49.486;9.640;2023-09-18T02:30:45;2.33;;;2.13;;
57778;SDS011;43608;49.486;9.640;2023-09-18T02:31:15;2.40;;;2.20;;
57778;SDS011;43608;49.486;9.640;2023-09-18T02:31:46;2.63;;;2.38;;
57778;SDS011;43608;49.486;9.640;2023-09-18T02:32:16;2.50;;;2.30;;
57778;SDS011;43608;49.486;9.640;2023-09-18T02:32:47;2.40;;;2.20;;
57778;SDS011;43608;49.486;9.640;2023-09-18T02:33:17;2.40;;;2.20;;
57778;SDS011;43608;49.486;9.640;2023-09-18T02:33:48;2.47;;;2.28;;
57778;SDS011;43608;49.486;9.640;2023-09-18T02:34:18;2.50;;;2.30;;
57778;SDS011;43608;49.486;9.640;2023-09-18T02:34:49;2.58;;;2.30;;
57778;SDS011;43608;49.486;9.640;2023-09-18T02:35:19;2.28;;;2.08;;
57778;SDS011;43608;49.486;9.640;2023-09-18T02:35:49;2.47;;;2.28;;
57778;SDS011;43608;49.486;9.640;2023-09-18T02:36:20;2.45;;;2.25;;
57778;SDS011;43608;49.486;9.640;2023-09-18T02:36:50;2.20;;;2.00;;
57778;SDS011;43608;49.486;9.640;2023-09-18T02:37:20;2.22;;;2.03;;
57778;SDS011;43608;49.486;9.640;2023-09-18T02:37:51;2.40;;;2.20;;
57778;SDS011;43608;49.486;9.640;2023-09-18T02:38:22;2.25;;;2.05;;
57778;SDS011;43608;49.486;9.640;2023-09-18T02:38:52;2.40;;;2.20;;
57778;SDS011;43608;49.486;9.640;2023-09-18T02:39:23;2.00;;;1.90;;
57778;SDS011;43608;49.486;9.640;2023-09-18T02:39:53;2.25;;;2.05;;
57778;SDS011;43608;49.486;9.640;2023-09-18T02:40:23;2.30;;;2.10;;
57778;SDS011;43608;49.486;9.640;2023-09-18T02:40:54;2.28;;;2.08;;
57778;SDS011;43608;49.486;9.640;2023-09-18T02:41:24;2.45;;;2.25;;
57778;SDS011;43608;49.486;9.640;2023-09-18T02:41:55;2.50;;;2.30;;
57778;SDS011;43608;49.486;9.640;2023-09-18T02:42:26;2.22;;;2.03;;
57778;SDS011;43608;49.486;9.640;2023-09-18T02:42:56;2.20;;;2.00;;
57778;SDS011;43608;49.486;9.640;2023-09-18T02:43:27;2.40;;;2.20;;
57778;SDS011;43608;49.486;9.640;2023-09-18T02:43:57;2.17;;;1.98;;
57778;SDS011;43608;49.486;9.640;2023-09-18T02:44:28;2.35;;;2.15;;
57778;SDS011;43608;49.486;9.640;2023-09-18T02:44:58;2.30;;;2.10;;
57778;SDS011;43608;49.486;9.640;2023-09-18T02:45:28;2.40;;;2.20;;
57778;SDS011;43608;49.486;9.640;2023-09-18T02:45:59;3.53;;;2.28;;
57778;SDS011;43608;49.486;9.640;2023-09-18T02:46:29;2.42;;;2.22;;
57778;SDS011;43608;49.486;9.640;2023-09-18T02:47:00;2.30;;;2.10;;
57778;SDS011;43608;49.486;9.640;2023-09-18T02:47:31;2.80;;;2.40;;
57778;SDS011;43608;49.486;9.640;2023-09-18T02:48:02;3.80;;;2.50;;
57778;SDS011;43608;49.486;9.640;2023-09-18T02:48:32;2.70;;;2.50;;
57778;SDS011;43608;49.486;9.640;2023-09-18T02:49:03;3.60;;;2.72;;
57778;SDS011;43608;49.486;9.640;2023-09-18T02:49:33;2.90;;;2.55;;
57778;SDS011;43608;49.486;9.640;2023-09-18T02:50:04;3.00;;;2.67;;
57778;SDS011;43608;49.486;9.640;2023-09-18T02:50:35;2.63;;;2.40;;
57778;SDS011;43608;49.486;9.640;2023-09-18T02:51:05;4.13;;;2.80;;
57778;SDS011;43608;49.486;9.640;2023-09-18T02:51:36;3.17;;;2.88;;
57778;SDS011;43608;49.486;9.640;2023-09-18T02:52:06;4.70;;;2.92;;
57778;SDS011;43608;49.486;9.640;2023-09-18T02:52:37;3.97;;;2.95;;
57778;SDS011;43608;49.486;9.640;2023-09-18T02:53:07;3.58;;;3.08;;
57778;SDS011;43608;49.486;9.640;2023-09-18T02:53:46;3.33;;;2.80;;
57778;SDS011;43608;49.486;9.640;2023-09-18T02:54:17;3.67;;;3.28;;
57778;SDS011;43608;49.486;9.640;2023-09-18T02:54:47;4.05;;;3.28;;
57778;SDS011;43608;49.486;9.640;2023-09-18T02:55:17;3.80;;;3.38;;
57778;SDS011;43608;49.486;9.640;2023-09-18T02:55:48;4.18;;;3.15;;
57778;SDS011;43608;49.486;9.640;2023-09-18T02:56:20;5.13;;;3.28;;
57778;SDS011;43608;49.486;9.640;2023-09-18T02:56:50;4.60;;;3.30;;
57778;SDS011;43608;49.486;9.640;2023-09-18T02:57:21;3.97;;;3.15;;
57778;SDS011;43608;49.486;9.640;2023-09-18T02:57:54;4.70;;;3.08;;
57778;SDS011;43608;49.486;9.640;2023-09-18T02:58:25;3.80;;;3.00;;
57778;SDS011;43608;49.486;9.640;2023-09-18T02:58:56;3.80;;;3.20;;
57778;SDS011;43608;49.486;9.640;2023-09-18T02:59:26;3.30;;;2.97;;
57778;SDS011;43608;49.486;9.640;2023-09-18T02:59:57;3.10;;;2.80;;
57778;SDS011;43608;49.486;9.640;2023-09-18T03:00:27;4.40;;;3.28;;
57778;SDS011;43608;49.486;9.640;2023-09-18T03:00:57;3.70;;;3.22;;
57778;SDS011;43608;49.486;9.640;2023-09-18T03:01:32;3.88;;;3.20;;
57778;SDS011;43608;49.486;9.640;2023-09-18T03:02:03;3.85;;;3.40;;
57778;SDS011;43608;49.486;9.640;2023-09-18T03:02:33;4.22;;;3.40;;
57778;SDS011;43608;49.486;9.640;2023-09-18T03:03:04;4.07;;;3.45;;
57778;SDS011;43608;49.486;9.640;2023-09-18T03:03:34;4.28;;;3.38;;
57778;SDS011;43608;49.486;9.640;2023-09-18T03:04:05;4.35;;;3.40;;
57778;SDS011;43608;49.486;9.640;2023-09-18T03:04:35;3.70;;;3.20;;
57778;SDS011;43608;49.486;9.640;2023-09-18T03:05:06;3.55;;;3.25;;
57778;SDS011;43608;49.486;9.640;2023-09-18T03:05:38;4.40;;;3.22;;
57778;SDS011;43608;49.486;9.640;2023-09-18T03:06:10;3.78;;;3.33;;
57778;SDS011;43608;49.486;9.640;2023-09-18T03:06:40;4.05;;;3.25;;
57778;SDS011;43608;49.486;9.640;2023-09-18T03:07:14;4.78;;;3.22;;
57778;SDS011;43608;49.486;9.640;2023-09-18T03:07:46;3.40;;;3.10;;
57778;SDS011;43608;49.486;9.640;2023-09-18T03:08:18;3.70;;;3.20;;
57778;SDS011;43608;49.486;9.640;2023-09-18T03:08:48;3.50;;;3.00;;
57778;SDS011;43608;49.486;9.640;2023-09-18T03:09:18;4.65;;;3.17;;
57778;SDS011;43608;49.486;9.640;2023-09-18T03:09:49;3.45;;;3.00;;
57778;SDS011;43608;49.486;9.640;2023-09-18T03:10:19;3.50;;;3.20;;
57778;SDS011;43608;49.486;9.640;2023-09-18T03:10:49;3.78;;;3.05;;